Madison, Minnesota
Current Conditions -  °F | °C
As of 5:54 PM on Sunday 21 Dec 2014 (Local Time) from KDXX Reporting Station
Haze Haze  
Wind Chill: 29°   Ceiling: Unl
Heat Index: 37°   Visibility: 4mi
Dew Point: 37°   Wind: 14mph
Humidity: 100%   Direction: 160°SSE
Pressure: 29.59"   Gusts: NA
Location:  45.01°N, 96.2°W
Report Text: KDXX 212354Z AUTO 16012KT 4SM BR CLR 03/03 A2959 RMK AO2
Loading
Personal Weather Stations






























Interactive Weather Map New forecast layout! Learn more

10-Day Weather Forecast

Advertisements
Track Severe Weather on mobile